createdAt,value
2022-12-29T00:01:39.189Z,99655.31
2022-12-29T00:04:15.191Z,99653.06
2022-12-29T00:06:45.244Z,99648.94
2022-12-29T00:09:15.996Z,99654.19
2022-12-29T00:11:45.905Z,99649.22
2022-12-29T00:14:28.812Z,99651.69
2022-12-29T00:16:58.176Z,99648.41
2022-12-29T00:19:43.220Z,99653.63
2022-12-29T00:22:26.382Z,99654.00
2022-12-29T00:25:08.314Z,99651.13
2022-12-29T00:27:50.232Z,99651.78
2022-12-29T00:30:33.940Z,99646.78
2022-12-29T00:33:16.354Z,99644.94
2022-12-29T00:35:59.516Z,99650.72
2022-12-29T00:38:42.303Z,99647.44
2022-12-29T00:41:24.234Z,99645.97
2022-12-29T00:44:10.964Z,99645.56
2022-12-29T00:46:42.244Z,99640.34
2022-12-29T00:49:26.066Z,99647.44
2022-12-29T00:51:58.711Z,99642.66
2022-12-29T00:54:28.387Z,99636.66
2022-12-29T00:56:57.836Z,99641.22
2022-12-29T00:59:27.790Z,99643.94
2022-12-29T01:02:00.943Z,99633.75
2022-12-29T01:04:32.091Z,99643.31
2022-12-29T01:07:04.989Z,99631.28
2022-12-29T01:09:48.096Z,99629.59
2022-12-29T01:12:17.768Z,99616.72
2022-12-29T01:14:47.784Z,99617.94
2022-12-29T01:17:17.144Z,99611.75
2022-12-29T01:19:47.439Z,99612.56
2022-12-29T01:22:19.383Z,99600.13
2022-12-29T01:24:48.736Z,99600.13
2022-12-29T01:27:18.084Z,99601.34
2022-12-29T01:29:47.634Z,99579.38
2022-12-29T01:32:17.070Z,99584.94
2022-12-29T01:34:47.554Z,99580.59
2022-12-29T01:37:19.569Z,99572.47
2022-12-29T01:39:49.180Z,99567.72
2022-12-29T01:42:21.187Z,99572.50
2022-12-29T01:44:56.393Z,99573.75
2022-12-29T01:47:39.316Z,99556.50
2022-12-29T01:50:11.718Z,99564.38
2022-12-29T01:52:46.957Z,99565.19
2022-12-29T01:55:16.689Z,99559.59
2022-12-29T01:57:53.011Z,99548.63
2022-12-29T02:00:22.853Z,99562.31
2022-12-29T02:02:56.273Z,99560.63
2022-12-29T02:05:31.687Z,99549.41
2022-12-29T02:08:04.834Z,99537.19
2022-12-29T02:10:38.823Z,99549.03
2022-12-29T02:13:08.261Z,99533.88
2022-12-29T02:15:50.147Z,99532.16
2022-12-29T02:18:30.064Z,99536.97
2022-12-29T02:21:49.190Z,99533.63
2022-12-29T02:24:44.581Z,99538.44
2022-12-29T02:27:35.271Z,99535.50
2022-12-29T02:30:21.911Z,99528.09
2022-12-29T02:33:03.264Z,99543.03
2022-12-29T02:35:39.839Z,99551.53
2022-12-29T02:38:20.902Z,99549.25
2022-12-29T02:41:01.111Z,99545.50
2022-12-29T02:43:39.238Z,99547.59
2022-12-29T02:46:19.835Z,99555.47
2022-12-29T02:48:59.498Z,99540.72
2022-12-29T02:51:35.746Z,99543.44
2022-12-29T02:54:18.432Z,99540.13
2022-12-29T02:56:47.936Z,99531.63
2022-12-29T02:59:17.886Z,99533.47
2022-12-29T03:02:19.666Z,99526.81
2022-12-29T03:05:08.330Z,99528.06
2022-12-29T03:07:47.155Z,99521.66
2022-12-29T03:10:28.742Z,99531.63
2022-12-29T03:13:17.823Z,99527.84
2022-12-29T03:16:06.706Z,99519.56
2022-12-29T03:18:44.663Z,99506.91
2022-12-29T03:21:23.253Z,99507.91
2022-12-29T03:23:53.277Z,99501.50
2022-12-29T03:26:24.501Z,99494.00
2022-12-29T03:28:58.466Z,99490.03
2022-12-29T03:31:32.042Z,99484.44
2022-12-29T03:34:03.373Z,99475.28
2022-12-29T03:36:42.734Z,99477.19
2022-12-29T03:39:15.985Z,99474.25
2022-12-29T03:41:48.178Z,99491.69
2022-12-29T03:44:17.610Z,99479.22
2022-12-29T03:46:47.033Z,99470.91
2022-12-29T03:49:16.499Z,99476.09
2022-12-29T03:51:51.999Z,99466.97
2022-12-29T03:54:21.729Z,99460.31
2022-12-29T03:56:51.171Z,99469.66
2022-12-29T03:59:27.399Z,99459.66
2022-12-29T04:01:56.885Z,99465.28
2022-12-29T04:04:26.316Z,99465.06
2022-12-29T04:06:58.358Z,99469.41
2022-12-29T04:09:27.789Z,99464.84
2022-12-29T04:11:57.811Z,99461.53
2022-12-29T04:14:27.349Z,99470.47
2022-12-29T04:16:56.803Z,99470.19
2022-12-29T04:19:26.504Z,99474.56
2022-12-29T04:21:58.409Z,99457.31
2022-12-29T04:24:27.899Z,99460.13
2022-12-29T04:26:57.622Z,99458.63
2022-12-29T04:29:34.278Z,99475.25
2022-12-29T04:32:26.268Z,99482.19
2022-12-29T04:34:57.761Z,99477.13
2022-12-29T04:37:29.770Z,99464.66
2022-12-29T04:40:00.503Z,99465.22
2022-12-29T04:42:30.826Z,99475.16
2022-12-29T04:45:00.256Z,99469.34
2022-12-29T04:47:58.582Z,99467.09
2022-12-29T04:50:47.912Z,99465.66
2022-12-29T04:53:22.619Z,99457.72
2022-12-29T04:55:53.789Z,99461.03
2022-12-29T04:58:24.411Z,99454.41
2022-12-29T05:00:55.368Z,99460.41
2022-12-29T05:03:27.589Z,99451.63
2022-12-29T05:05:58.488Z,99450.56
2022-12-29T05:08:30.540Z,99445.34
2022-12-29T05:11:02.485Z,99439.72
2022-12-29T05:13:31.853Z,99443.53
2022-12-29T05:16:01.331Z,99435.75
2022-12-29T05:18:30.958Z,99447.25
2022-12-29T05:21:01.957Z,99449.72
2022-12-29T05:23:34.197Z,99432.88
2022-12-29T05:26:08.084Z,99436.44
2022-12-29T05:28:53.791Z,99438.47
2022-12-29T05:31:23.279Z,99423.34
2022-12-29T05:33:52.744Z,99426.03
2022-12-29T05:36:22.565Z,99432.84
2022-12-29T05:38:58.779Z,99438.25
2022-12-29T05:41:28.338Z,99423.25
2022-12-29T05:44:18.350Z,99437.53
2022-12-29T05:47:16.813Z,99434.97
2022-12-29T05:49:53.916Z,99428.72
2022-12-29T05:52:32.528Z,99442.88
2022-12-29T05:55:04.496Z,99452.09
2022-12-29T05:57:34.924Z,99440.44
2022-12-29T06:00:14.291Z,99444.03
2022-12-29T06:02:47.771Z,99444.66
2022-12-29T06:05:18.904Z,99434.50
2022-12-29T06:07:48.436Z,99430.81
2022-12-29T06:10:22.320Z,99434.56
2022-12-29T06:13:02.298Z,99438.97
2022-12-29T06:15:33.983Z,99426.72
2022-12-29T06:18:03.590Z,99423.00
2022-12-29T06:20:32.998Z,99415.72
2022-12-29T06:23:02.432Z,99409.13
2022-12-29T06:25:36.902Z,99404.75
2022-12-29T06:28:08.076Z,99399.94
2022-12-29T06:30:39.679Z,99394.16
2022-12-29T06:33:10.016Z,99392.94
2022-12-29T06:35:39.915Z,99400.44
2022-12-29T06:38:09.345Z,99381.09
2022-12-29T06:40:42.299Z,99377.56
2022-12-29T06:43:25.141Z,99383.78
2022-12-29T06:45:54.582Z,99387.31
2022-12-29T06:48:23.909Z,99380.25
2022-12-29T06:50:53.254Z,99382.56
2022-12-29T06:53:22.641Z,99378.81
2022-12-29T06:55:54.610Z,99370.06
2022-12-29T06:58:24.009Z,99386.44
2022-12-29T07:00:53.427Z,99388.72
2022-12-29T07:03:22.866Z,99392.34
2022-12-29T07:05:52.315Z,99389.19
2022-12-29T07:08:21.754Z,99382.13
2022-12-29T07:10:53.688Z,99381.91
2022-12-29T07:13:23.166Z,99373.66
2022-12-29T07:15:52.533Z,99385.41
2022-12-29T07:18:21.917Z,99391.16
2022-12-29T07:20:51.495Z,99410.47
2022-12-29T07:23:20.868Z,99452.31
2022-12-29T07:25:50.252Z,99459.22
2022-12-29T07:28:22.201Z,99463.50
2022-12-29T07:30:51.546Z,99468.81
2022-12-29T07:33:20.955Z,99483.19
2022-12-29T07:35:50.765Z,99495.91
2022-12-29T07:38:20.270Z,99499.63
2022-12-29T07:40:49.857Z,99506.69
2022-12-29T07:43:21.796Z,99500.88
2022-12-29T07:46:14.565Z,99502.72
2022-12-29T07:48:59.329Z,99520.19
2022-12-29T07:51:28.744Z,99518.50
2022-12-29T07:53:58.109Z,99515.81
2022-12-29T07:56:27.450Z,99511.84
2022-12-29T07:58:59.476Z,99488.00
2022-12-29T08:01:29.309Z,99484.44
2022-12-29T08:03:58.832Z,99497.31
2022-12-29T08:06:29.668Z,99501.25
2022-12-29T08:09:04.089Z,99503.97
2022-12-29T08:11:37.842Z,99508.31
2022-12-29T08:14:09.833Z,99510.59
2022-12-29T08:16:39.248Z,99502.50
2022-12-29T08:19:08.651Z,99508.56
2022-12-29T08:21:38.017Z,99531.59
2022-12-29T08:24:08.095Z,99536.34
2022-12-29T08:26:37.627Z,99534.31
2022-12-29T08:29:09.617Z,99519.78
2022-12-29T08:31:39.097Z,99519.56
2022-12-29T08:34:08.504Z,99524.34
2022-12-29T08:36:37.864Z,99535.56
2022-12-29T08:39:07.777Z,99540.31
2022-12-29T08:41:37.196Z,99551.34
2022-12-29T08:44:09.631Z,99540.94
2022-12-29T08:46:39.080Z,99545.31
2022-12-29T08:49:08.559Z,99548.84
2022-12-29T08:51:37.941Z,99548.19
2022-12-29T08:54:07.401Z,99548.22
2022-12-29T08:56:37.191Z,99560.28
2022-12-29T08:59:09.823Z,99567.72
2022-12-29T09:01:41.724Z,99571.88
2022-12-29T09:04:16.548Z,99571.69
2022-12-29T09:06:47.389Z,99575.22
2022-12-29T09:09:17.007Z,99573.13
2022-12-29T09:11:47.049Z,99570.84
2022-12-29T09:14:19.151Z,99562.13
2022-12-29T09:17:01.123Z,99553.84
2022-12-29T09:19:30.494Z,99559.84
2022-12-29T09:21:59.852Z,99561.28
2022-12-29T09:24:29.234Z,99559.03
2022-12-29T09:26:58.618Z,99568.97
2022-12-29T09:29:30.567Z,99570.66
2022-12-29T09:31:59.943Z,99568.59
2022-12-29T09:34:29.255Z,99576.47
2022-12-29T09:36:59.057Z,99576.66
2022-12-29T09:39:28.643Z,99576.03
2022-12-29T09:42:10.268Z,99568.16
2022-12-29T09:44:55.502Z,99572.28
2022-12-29T09:47:27.431Z,99575.22
2022-12-29T09:50:00.598Z,99570.22
2022-12-29T09:52:35.138Z,99581.63
2022-12-29T09:55:13.597Z,99579.34
2022-12-29T09:57:49.149Z,99584.56
2022-12-29T10:00:23.230Z,99592.03
2022-12-29T10:02:55.568Z,99585.81
2022-12-29T10:05:34.323Z,99581.25
2022-12-29T10:08:20.953Z,99586.22
2022-12-29T10:10:58.622Z,99585.81
2022-12-29T10:13:38.526Z,99581.88
2022-12-29T10:16:16.346Z,99585.81
2022-12-29T10:19:08.166Z,99583.13
2022-12-29T10:21:49.535Z,99589.13
2022-12-29T10:24:22.747Z,99582.91
2022-12-29T10:26:55.417Z,99571.06
2022-12-29T10:29:32.222Z,99572.31
2022-12-29T10:32:08.481Z,99572.94
2022-12-29T10:34:41.290Z,99564.41
2022-12-29T10:37:15.745Z,99561.06
2022-12-29T10:39:51.620Z,99555.22
2022-12-29T10:42:30.021Z,99556.47
2022-12-29T10:45:00.981Z,99561.63
2022-12-29T10:47:42.094Z,99550.56
2022-12-29T10:50:15.610Z,99538.66
2022-12-29T10:52:45.260Z,99544.81
2022-12-29T10:55:19.133Z,99550.38
2022-12-29T10:57:50.553Z,99552.75
2022-12-29T11:00:22.714Z,99554.06
2022-12-29T11:03:33.318Z,99557.16
2022-12-29T11:06:09.324Z,99565.06
2022-12-29T11:08:42.160Z,99560.06
2022-12-29T11:11:13.585Z,99571.50
2022-12-29T11:13:51.738Z,99578.16
2022-12-29T11:16:31.755Z,99563.34
2022-12-29T11:19:04.209Z,99556.31
2022-12-29T11:21:41.220Z,99573.84
2022-12-29T11:24:23.711Z,99571.97
2022-12-29T11:26:58.402Z,99573.97
2022-12-29T11:29:30.255Z,99567.84
2022-12-29T11:32:01.370Z,99569.53
2022-12-29T11:34:36.530Z,99561.94
2022-12-29T11:37:07.953Z,99559.91
2022-12-29T11:39:43.070Z,99558.34
2022-12-29T11:42:19.376Z,99564.38
2022-12-29T11:44:50.536Z,99575.09
2022-12-29T11:47:32.043Z,99569.03
2022-12-29T11:50:06.066Z,99576.88
2022-12-29T11:52:40.514Z,99584.13
2022-12-29T11:55:23.036Z,99579.47
2022-12-29T11:57:55.716Z,99582.72
2022-12-29T12:00:27.367Z,99579.25
2022-12-29T12:03:00.492Z,99586.28
2022-12-29T12:05:41.264Z,99583.53
2022-12-29T12:08:21.104Z,99586.59
2022-12-29T12:10:59.568Z,99589.72
2022-12-29T12:13:33.713Z,99585.94
2022-12-29T12:16:09.847Z,99587.44
2022-12-29T12:18:46.068Z,99594.09
2022-12-29T12:21:28.563Z,99589.16
2022-12-29T12:24:11.086Z,99589.63
2022-12-29T12:26:46.483Z,99588.31
2022-12-29T12:29:19.909Z,99584.72
2022-12-29T12:31:54.673Z,99591.06
2022-12-29T12:34:31.138Z,99590.06
2022-12-29T12:37:41.438Z,99596.38
2022-12-29T12:40:39.275Z,99607.03
2022-12-29T12:43:31.519Z,99606.66
2022-12-29T12:46:17.108Z,99592.97
2022-12-29T12:49:01.345Z,99598.59
2022-12-29T12:51:38.282Z,99599.66
2022-12-29T12:54:21.892Z,99599.88
2022-12-29T12:56:59.476Z,99607.56
2022-12-29T12:59:41.429Z,99598.00
2022-12-29T13:02:24.305Z,99606.34
2022-12-29T13:05:02.492Z,99601.53
2022-12-29T13:07:44.047Z,99608.38
2022-12-29T13:10:30.132Z,99595.28
2022-12-29T13:13:13.397Z,99606.53
2022-12-29T13:15:50.954Z,99619.66
2022-12-29T13:18:30.273Z,99617.38
2022-12-29T13:21:07.745Z,99610.53
2022-12-29T13:23:42.736Z,99629.44
2022-12-29T13:26:21.417Z,99629.03
2022-12-29T13:28:58.609Z,99620.50
2022-12-29T13:31:36.891Z,99628.78
2022-12-29T13:34:14.552Z,99631.75
2022-12-29T13:36:47.775Z,99633.00
2022-12-29T13:39:22.960Z,99638.59
2022-12-29T13:41:57.072Z,99639.03
2022-12-29T13:44:36.426Z,99640.06
2022-12-29T13:47:19.091Z,99652.38
2022-12-29T13:49:49.074Z,99667.34
2022-12-29T13:52:24.988Z,99664.22
2022-12-29T13:55:05.909Z,99670.03
2022-12-29T13:57:49.392Z,99675.47
2022-12-29T14:00:21.633Z,99687.34
2022-12-29T14:03:24.881Z,99687.34
2022-12-29T14:06:15.440Z,99701.28
2022-12-29T14:08:48.200Z,99706.53
2022-12-29T14:11:20.382Z,99701.31
2022-12-29T14:13:52.635Z,99711.31
2022-12-29T14:16:36.764Z,99714.63
2022-12-29T14:19:16.609Z,99736.28
2022-12-29T14:21:55.155Z,99734.59
2022-12-29T14:24:42.767Z,99737.97
2022-12-29T14:27:42.244Z,99737.72
2022-12-29T14:30:41.590Z,99736.28
2022-12-29T14:33:18.458Z,99742.13
2022-12-29T14:35:50.811Z,99755.03
2022-12-29T14:38:23.427Z,99761.69
2022-12-29T14:40:54.040Z,99764.19
2022-12-29T14:43:29.871Z,99765.44
2022-12-29T14:46:03.101Z,99765.63
2022-12-29T14:48:46.503Z,99762.72
2022-12-29T14:51:34.254Z,99772.72
2022-12-29T14:54:03.869Z,99768.75
2022-12-29T14:56:35.187Z,99774.78
2022-12-29T14:59:06.503Z,99780.41
2022-12-29T15:01:44.316Z,99778.94
2022-12-29T15:04:23.124Z,99779.19
2022-12-29T15:06:54.059Z,99781.03
2022-12-29T15:09:31.995Z,99782.69
2022-12-29T15:12:11.066Z,99796.63
2022-12-29T15:14:52.310Z,99795.16
2022-12-29T15:17:30.082Z,99802.06
2022-12-29T15:20:03.590Z,99799.75
2022-12-29T15:22:34.324Z,99810.56
2022-12-29T15:25:03.771Z,99825.72
2022-12-29T15:27:33.447Z,99821.97
2022-12-29T15:30:08.501Z,99821.13
2022-12-29T15:32:44.240Z,99828.03
2022-12-29T15:35:31.954Z,99820.91
2022-12-29T15:38:04.290Z,99826.69
2022-12-29T15:40:35.916Z,99834.16
2022-12-29T15:43:20.478Z,99828.56
2022-12-29T15:45:49.936Z,99827.56
2022-12-29T15:48:22.652Z,99823.56
2022-12-29T15:50:54.702Z,99831.03
2022-12-29T15:53:29.537Z,99825.44
2022-12-29T15:56:03.518Z,99829.19
2022-12-29T15:58:34.544Z,99835.19
2022-12-29T16:01:05.473Z,99838.38
2022-12-29T16:03:40.434Z,99840.81
2022-12-29T16:06:31.243Z,99839.13
2022-12-29T16:09:03.715Z,99844.53
2022-12-29T16:11:38.696Z,99845.34
2022-12-29T16:14:13.270Z,99851.75
2022-12-29T16:16:44.990Z,99849.88
2022-12-29T16:19:17.866Z,99848.81
2022-12-29T16:21:50.296Z,99845.06
2022-12-29T16:24:22.452Z,99841.94
2022-12-29T16:26:54.494Z,99842.34
2022-12-29T16:29:25.423Z,99852.09
2022-12-29T16:32:01.937Z,99859.59
2022-12-29T16:34:33.895Z,99857.69
2022-12-29T16:37:07.224Z,99859.38
2022-12-29T16:39:40.259Z,99857.06
2022-12-29T16:42:38.033Z,99854.16
2022-12-29T16:45:47.886Z,99857.44
2022-12-29T16:48:23.555Z,99859.28
2022-12-29T16:50:53.390Z,99854.72
2022-12-29T16:53:29.817Z,99841.44
2022-12-29T16:56:05.861Z,99842.47
2022-12-29T16:58:36.286Z,99851.63
2022-12-29T17:01:19.858Z,99840.63
2022-12-29T17:03:53.636Z,99840.41
2022-12-29T17:06:25.071Z,99848.28
2022-12-29T17:08:57.788Z,99833.50
2022-12-29T17:11:42.741Z,99833.09
2022-12-29T17:14:26.360Z,99839.56
2022-12-29T17:16:55.916Z,99843.34
2022-12-29T17:19:31.830Z,99841.03
2022-12-29T17:22:02.301Z,99853.31
2022-12-29T17:24:34.566Z,99854.34
2022-12-29T17:27:04.235Z,99852.47
2022-12-29T17:29:37.313Z,99855.34
2022-12-29T17:32:10.006Z,99854.69
2022-12-29T17:34:39.554Z,99859.72
2022-12-29T17:37:27.678Z,99855.34
2022-12-29T17:39:59.721Z,99859.09
2022-12-29T17:42:30.303Z,99854.09
2022-12-29T17:44:59.808Z,99857.84
2022-12-29T17:47:29.346Z,99849.47
2022-12-29T17:49:58.817Z,99849.06
2022-12-29T17:52:28.184Z,99855.50
2022-12-29T17:55:01.076Z,99853.59
2022-12-29T17:57:30.434Z,99855.09
2022-12-29T17:59:59.834Z,99849.28
2022-12-29T18:02:31.987Z,99856.31
2022-12-29T18:05:02.304Z,99856.31
2022-12-29T18:07:36.069Z,99853.84
2022-12-29T18:10:09.494Z,99857.97
2022-12-29T18:12:42.290Z,99858.97
2022-12-29T18:15:19.980Z,99859.63
2022-12-29T18:17:49.693Z,99869.81
2022-12-29T18:20:19.655Z,99862.56
2022-12-29T18:22:49.038Z,99874.63
2022-12-29T18:25:29.844Z,99870.88
2022-12-29T18:27:59.234Z,99889.16
2022-12-29T18:30:28.575Z,99919.16
2022-12-29T18:32:58.186Z,99935.53
2022-12-29T18:35:33.227Z,99941.91
2022-12-29T18:38:02.615Z,99933.41
2022-12-29T18:40:34.582Z,99915.63
2022-12-29T18:43:04.047Z,99918.94
2022-12-29T18:45:35.183Z,99925.38
2022-12-29T18:48:04.585Z,99919.22
2022-12-29T18:50:34.081Z,99922.16
2022-12-29T18:53:04.330Z,99911.00
2022-12-29T18:55:36.537Z,99912.84
2022-12-29T18:58:05.918Z,99917.88
2022-12-29T19:00:35.339Z,99913.06
2022-12-29T19:03:05.105Z,99914.63
2022-12-29T19:05:39.282Z,99913.50
2022-12-29T19:08:09.351Z,99910.25
2022-12-29T19:10:42.632Z,99915.00
2022-12-29T19:13:17.169Z,99907.91
2022-12-29T19:15:47.332Z,99923.25
2022-12-29T19:21:11.628Z,99917.31
2022-12-29T19:23:41.217Z,99922.03
2022-12-29T19:26:29.629Z,99929.88
2022-12-29T19:28:59.309Z,99923.25
2022-12-29T19:31:28.809Z,99931.91
2022-12-29T19:33:58.317Z,99922.72
2022-12-29T19:36:27.883Z,99932.72
2022-12-29T19:38:57.921Z,99936.94
2022-12-29T19:41:29.995Z,99940.13
2022-12-29T19:43:59.404Z,99942.13
2022-12-29T19:46:28.866Z,99952.47
2022-12-29T19:48:59.184Z,99948.28
2022-12-29T19:51:29.293Z,99948.38
2022-12-29T19:53:58.791Z,99950.59
2022-12-29T19:56:30.748Z,99955.94
2022-12-29T19:59:00.268Z,99963.97
2022-12-29T20:01:29.861Z,99970.38
2022-12-29T20:04:00.613Z,99962.84
2022-12-29T20:06:30.021Z,99970.69
2022-12-29T20:08:59.406Z,99971.31
2022-12-29T20:11:31.499Z,99972.28
2022-12-29T20:14:00.936Z,99981.41
2022-12-29T20:16:30.453Z,99988.09
2022-12-29T20:18:59.898Z,99990.56
2022-12-29T20:21:29.253Z,100002.56
2022-12-29T20:23:58.993Z,100003.03
2022-12-29T20:26:32.313Z,100015.03
2022-12-29T20:29:01.802Z,100011.97
2022-12-29T20:31:33.434Z,100010.88
2022-12-29T20:34:02.993Z,100022.78
2022-12-29T20:36:34.574Z,100018.41
2022-12-29T20:39:08.647Z,100027.88
2022-12-29T20:41:40.556Z,100034.31
2022-12-29T20:44:09.918Z,100030.78
2022-12-29T20:46:43.690Z,100029.94
2022-12-29T20:49:14.257Z,100036.81
2022-12-29T20:52:06.306Z,100033.88
2022-12-29T20:54:39.205Z,100039.28
2022-12-29T20:57:11.813Z,100048.56
2022-12-29T20:59:41.320Z,100046.72
2022-12-29T21:02:21.646Z,100037.78
2022-12-29T21:05:23.450Z,100044.31
2022-12-29T21:07:41.812Z,100052.13
2022-12-29T21:10:11.239Z,100058.81
2022-12-29T21:12:43.251Z,100054.16
2022-12-29T21:15:14.442Z,100054.44
2022-12-29T21:17:44.241Z,100056.94
2022-12-29T21:20:19.710Z,100059.34
2022-12-29T21:22:50.060Z,100069.47
2022-12-29T21:25:19.666Z,100072.19
2022-12-29T21:27:51.647Z,100059.06
2022-12-29T21:30:21.226Z,100062.72
2022-12-29T21:32:50.625Z,100064.94
2022-12-29T21:35:20.757Z,100066.41
2022-12-29T21:37:50.132Z,100069.28
2022-12-29T21:40:21.041Z,100074.31
2022-12-29T21:42:53.008Z,100068.53
2022-12-29T21:45:25.935Z,100075.03
2022-12-29T21:48:08.535Z,100073.19
2022-12-29T21:51:01.841Z,100089.56
2022-12-29T21:53:43.877Z,100093.09
2022-12-29T21:56:16.529Z,100099.47
2022-12-29T21:59:03.789Z,100101.81
2022-12-29T22:01:47.472Z,100102.81
2022-12-29T22:04:31.313Z,100109.88
2022-12-29T22:07:13.454Z,100106.81
2022-12-29T22:09:55.359Z,100117.38
2022-12-29T22:12:37.254Z,100123.78
2022-12-29T22:15:10.364Z,100122.78
2022-12-29T22:17:44.997Z,100116.06
2022-12-29T22:20:17.826Z,100113.38
2022-12-29T22:22:47.202Z,100108.47
2022-12-29T22:25:17.049Z,100106.03
2022-12-29T22:27:46.496Z,100114.59
2022-12-29T22:30:18.997Z,100112.00
2022-12-29T22:32:48.584Z,100118.13
2022-12-29T22:35:18.190Z,100122.88
2022-12-29T22:37:47.763Z,100122.88
2022-12-29T22:40:17.162Z,100126.78
2022-12-29T22:42:46.544Z,100144.41
2022-12-29T22:45:18.574Z,100130.09
2022-12-29T22:47:47.953Z,100139.19
2022-12-29T22:50:17.365Z,100138.34
2022-12-29T22:52:46.785Z,100148.75
2022-12-29T22:55:16.174Z,100148.31
2022-12-29T22:57:45.589Z,100145.50
2022-12-29T23:00:18.335Z,100145.31
2022-12-29T23:02:47.860Z,100146.16
2022-12-29T23:05:17.611Z,100149.72
2022-12-29T23:07:47.129Z,100160.75
2022-12-29T23:10:16.565Z,100146.78
2022-12-29T23:12:46.065Z,100149.84
2022-12-29T23:15:18.551Z,100143.66
2022-12-29T23:17:48.119Z,100141.50
2022-12-29T23:20:17.567Z,100152.63
2022-12-29T23:22:47.005Z,100157.66
2022-12-29T23:25:16.511Z,100158.84
2022-12-29T23:27:45.925Z,100163.22
2022-12-29T23:30:18.215Z,100162.75
2022-12-29T23:32:47.658Z,100172.31
2022-12-29T23:35:17.372Z,100165.38
2022-12-29T23:37:46.821Z,100162.66
2022-12-29T23:40:16.345Z,100170.75
2022-12-29T23:42:45.741Z,100172.78
2022-12-29T23:45:17.870Z,100184.84
2022-12-29T23:47:47.271Z,100185.59
2022-12-29T23:50:16.774Z,100176.97
2022-12-29T23:52:46.240Z,100183.22
2022-12-29T23:55:15.621Z,100186.97
2022-12-29T23:57:45.099Z,100199.41
